31526 UKDR-OMAA
Flight info
| Callsign | 31526 |
|---|---|
| Flight time | N/A |
| Altitude | FL210 |
| Route | DCT ARI DCT UMH DCT OIAH DCT PRG DCT |
| Aircraft | B748/H-S/N |
Departure
| Time | 2026-04-23 15:53 |
|---|---|
| Airport | Kryvyi Rih International Airport (UKDR) |
Arrival
| Time | N/A |
|---|---|
| Airport | Zayed International Airport (OMAA) |
| Time | Latitude | Longitude | Altitude | Speed | Heading |
|---|---|---|---|---|---|
| 2026-04-23 15:50 | 48.03355 | 33.20660 | 421 ft | 0 kts | 5° |
| 2026-04-23 15:50 | 48.03356 | 33.20660 | 421 ft | 0 kts | 5° |
| 2026-04-23 15:51 | 48.03355 | 33.20660 | 421 ft | 1 kts | 5° |
| 2026-04-23 15:51 | 48.03342 | 33.20658 | 421 ft | 3 kts | 5° |
| 2026-04-23 15:51 | 48.03323 | 33.20655 | 421 ft | 3 kts | 5° |
| 2026-04-23 15:51 | 48.03303 | 33.20653 | 421 ft | 3 kts | 5° |
| 2026-04-23 15:52 | 48.03318 | 33.20655 | 421 ft | 5 kts | 5° |
| 2026-04-23 15:52 | 48.03375 | 33.20663 | 421 ft | 11 kts | 5° |
| 2026-04-23 15:52 | 48.03538 | 33.20685 | 421 ft | 47 kts | 5° |
| 2026-04-23 15:52 | 48.04131 | 33.20767 | 421 ft | 125 kts | 5° |
| 2026-04-23 15:53 | 48.05154 | 33.20908 | 422 ft | 160 kts | 5° |
| 2026-04-23 15:53 | 48.06296 | 33.21065 | 635 ft | 170 kts | 5° |
| 2026-04-23 15:53 | 48.07526 | 33.21237 | 969 ft | 184 kts | 5° |
| 2026-04-23 15:53 | 48.08830 | 33.21442 | 1285 ft | 192 kts | 5° |
| 2026-04-23 15:54 | 48.10178 | 33.21684 | 1579 ft | 201 kts | 5° |
| 2026-04-23 15:54 | 48.11617 | 33.21952 | 1794 ft | 209 kts | 5° |
| 2026-04-23 15:54 | 48.13040 | 33.22222 | 2092 ft | 205 kts | 5° |
| 2026-04-23 15:54 | 48.14452 | 33.22521 | 2395 ft | 204 kts | 5° |
| 2026-04-23 15:55 | 48.15916 | 33.22845 | 2726 ft | 231 kts | 5° |
| 2026-04-23 15:55 | 48.17765 | 33.23236 | 3003 ft | 317 kts | 7° |
| 2026-04-23 15:55 | 48.20283 | 33.24356 | 3162 ft | 445 kts | 19° |
| 2026-04-23 15:55 | 48.23457 | 33.26849 | 3321 ft | 571 kts | 30° |
| 2026-04-23 15:56 | 48.26743 | 33.30554 | 3452 ft | 606 kts | 39° |
| 2026-04-23 15:56 | 48.29687 | 33.35152 | 3579 ft | 615 kts | 48° |
| 2026-04-23 15:56 | 48.32127 | 33.40441 | 3704 ft | 620 kts | 57° |
| 2026-04-23 15:56 | 48.33996 | 33.46300 | 3830 ft | 623 kts | 66° |
| 2026-04-23 15:57 | 48.35228 | 33.52542 | 3959 ft | 626 kts | 76° |
| 2026-04-23 15:57 | 48.35797 | 33.59041 | 4085 ft | 627 kts | 85° |
| 2026-04-23 15:57 | 48.35676 | 33.65480 | 4207 ft | 606 kts | 94° |
| 2026-04-23 15:57 | 48.34901 | 33.71361 | 4319 ft | 541 kts | 104° |
| 2026-04-23 15:58 | 48.33535 | 33.76432 | 4437 ft | 510 kts | 115° |
| 2026-04-23 15:58 | 48.31652 | 33.80722 | 4548 ft | 477 kts | 128° |
| 2026-04-23 15:58 | 48.29384 | 33.84098 | 4667 ft | 441 kts | 140° |
| 2026-04-23 15:58 | 48.26956 | 33.86655 | 4795 ft | 418 kts | 149° |
| 2026-04-23 15:59 | 48.24337 | 33.88847 | 4940 ft | 457 kts | 154° |
| 2026-04-23 15:59 | 48.21189 | 33.91127 | 5086 ft | 552 kts | 156° |
| 2026-04-23 15:59 | 48.18754 | 33.92765 | 5177 ft | 589 kts | 157° |
| 2026-04-23 15:59 | 48.14904 | 33.95240 | 5307 ft | 612 kts | 158° |
| 2026-04-23 16:00 | 48.10975 | 33.97672 | 5431 ft | 609 kts | 159° |
| 2026-04-23 16:00 | 48.07126 | 33.99998 | 5548 ft | 574 kts | 159° |
| 2026-04-23 16:00 | 48.03641 | 34.02078 | 5660 ft | 516 kts | 160° |
| 2026-04-23 16:00 | 48.00355 | 34.04016 | 5784 ft | 513 kts | 160° |
| 2026-04-23 16:01 | 47.96884 | 34.06034 | 5917 ft | 557 kts | 160° |
| 2026-04-23 16:01 | 47.93156 | 34.08181 | 6047 ft | 588 kts | 160° |
| 2026-04-23 16:01 | 47.89274 | 34.10410 | 6173 ft | 606 kts | 160° |
| 2026-04-23 16:01 | 47.85314 | 34.12682 | 6299 ft | 614 kts | 160° |
| 2026-04-23 16:02 | 47.81315 | 34.14980 | 6425 ft | 616 kts | 160° |
| 2026-04-23 16:02 | 47.77373 | 34.17251 | 6547 ft | 602 kts | 160° |
| 2026-04-23 16:02 | 47.73468 | 34.19506 | 6673 ft | 608 kts | 160° |
| 2026-04-23 16:02 | 47.69511 | 34.21797 | 6799 ft | 614 kts | 160° |
| 2026-04-23 16:03 | 47.65522 | 34.24110 | 6924 ft | 614 kts | 160° |
| 2026-04-23 16:03 | 47.61600 | 34.26392 | 7044 ft | 591 kts | 160° |
| 2026-04-23 16:03 | 47.57989 | 34.28509 | 7159 ft | 527 kts | 160° |
| 2026-04-23 16:03 | 47.54718 | 34.30441 | 7444 ft | 489 kts | 160° |
| 2026-04-23 16:04 | 47.51649 | 34.32270 | 7739 ft | 467 kts | 161° |
| 2026-04-23 16:04 | 47.48529 | 34.34127 | 8050 ft | 511 kts | 161° |
| 2026-04-23 16:04 | 47.45036 | 34.36174 | 8358 ft | 563 kts | 161° |
| 2026-04-23 16:04 | 47.41315 | 34.38348 | 8664 ft | 582 kts | 161° |
| 2026-04-23 16:05 | 47.37581 | 34.40541 | 8959 ft | 567 kts | 160° |
| 2026-04-23 16:05 | 47.34109 | 34.42605 | 9239 ft | 508 kts | 160° |
| 2026-04-23 16:05 | 47.30947 | 34.44506 | 9524 ft | 475 kts | 160° |
| 2026-04-23 16:05 | 47.27999 | 34.46290 | 9807 ft | 442 kts | 161° |
| 2026-04-23 16:06 | 47.25269 | 34.47953 | 10085 ft | 409 kts | 161° |
| 2026-04-23 16:06 | 47.22743 | 34.49499 | 10363 ft | 377 kts | 161° |
| 2026-04-23 16:06 | 47.20430 | 34.50921 | 10642 ft | 347 kts | 162° |
| 2026-04-23 16:06 | 47.18298 | 34.52259 | 10926 ft | 319 kts | 163° |
| 2026-04-23 16:07 | 47.16569 | 34.53344 | 11172 ft | 297 kts | 163° |
| 2026-04-23 16:07 | 47.14736 | 34.54493 | 11455 ft | 279 kts | 164° |
| 2026-04-23 16:07 | 47.12902 | 34.55616 | 11768 ft | 299 kts | 164° |
| 2026-04-23 16:07 | 47.10884 | 34.56821 | 12088 ft | 324 kts | 164° |
| 2026-04-23 16:08 | 47.08771 | 34.58178 | 12396 ft | 338 kts | 161° |
| 2026-04-23 16:08 | 47.06650 | 34.59744 | 12699 ft | 346 kts | 158° |
| 2026-04-23 16:08 | 47.04549 | 34.61515 | 13002 ft | 352 kts | 155° |
| 2026-04-23 16:08 | 47.02470 | 34.63470 | 13305 ft | 357 kts | 152° |
| 2026-04-23 16:09 | 47.00426 | 34.65564 | 13607 ft | 361 kts | 150° |
| 2026-04-23 16:09 | 46.98413 | 34.67771 | 13908 ft | 364 kts | 148° |
| 2026-04-23 16:09 | 46.96419 | 34.70068 | 14210 ft | 366 kts | 147° |
| 2026-04-23 16:09 | 46.94442 | 34.72437 | 14511 ft | 369 kts | 146° |
| 2026-04-23 16:10 | 46.92472 | 34.74866 | 14812 ft | 371 kts | 146° |
| 2026-04-23 16:10 | 46.90513 | 34.77337 | 15114 ft | 373 kts | 145° |
| 2026-04-23 16:10 | 46.88565 | 34.79836 | 15421 ft | 373 kts | 144° |
| 2026-04-23 16:10 | 46.86626 | 34.82354 | 15720 ft | 371 kts | 144° |
| 2026-04-23 16:11 | 46.84709 | 34.84863 | 16019 ft | 370 kts | 144° |
| 2026-04-23 16:11 | 46.82800 | 34.87376 | 16318 ft | 370 kts | 144° |
| 2026-04-23 16:11 | 46.80889 | 34.89897 | 16618 ft | 371 kts | 144° |
| 2026-04-23 16:11 | 46.78979 | 34.92422 | 16918 ft | 372 kts | 144° |
| 2026-04-23 16:12 | 46.77060 | 34.94962 | 17219 ft | 373 kts | 144° |
| 2026-04-23 16:12 | 46.75133 | 34.97514 | 17519 ft | 375 kts | 144° |
| 2026-04-23 16:12 | 46.73203 | 35.00072 | 17820 ft | 377 kts | 144° |
| 2026-04-23 16:12 | 46.71263 | 35.02642 | 18120 ft | 378 kts | 144° |
| 2026-04-23 16:13 | 46.71248 | 35.02662 | 18123 ft | 378 kts | 144° |
| 2026-04-23 16:13 | 46.70107 | 35.04172 | 18299 ft | 379 kts | 144° |
| 2026-04-23 16:13 | 46.68152 | 35.06762 | 18599 ft | 381 kts | 144° |
| 2026-04-23 16:14 | 46.66183 | 35.09368 | 18900 ft | 383 kts | 144° |
| 2026-04-23 16:14 | 46.64205 | 35.11984 | 19202 ft | 385 kts | 144° |
| 2026-04-23 16:14 | 46.62225 | 35.14602 | 19502 ft | 387 kts | 144° |
| 2026-04-23 16:14 | 46.60229 | 35.17239 | 19803 ft | 388 kts | 144° |
| 2026-04-23 16:15 | 46.58230 | 35.19878 | 20103 ft | 390 kts | 144° |
| 2026-04-23 16:15 | 46.56215 | 35.22535 | 20404 ft | 392 kts | 144° |
| 2026-04-23 16:15 | 46.54250 | 35.25125 | 20696 ft | 394 kts | 144° |
| 2026-04-23 16:15 | 46.52147 | 35.27892 | 20881 ft | 398 kts | 144° |
| 2026-04-23 16:16 | 46.50091 | 35.30595 | 20971 ft | 400 kts | 144° |
| 2026-04-23 16:16 | 46.48021 | 35.33315 | 20992 ft | 402 kts | 144° |
| 2026-04-23 16:16 | 46.45969 | 35.36009 | 20993 ft | 402 kts | 144° |
| 2026-04-23 16:16 | 46.43858 | 35.38779 | 20992 ft | 403 kts | 144° |
| 2026-04-23 16:17 | 46.41743 | 35.41544 | 20995 ft | 415 kts | 144° |
| 2026-04-23 16:17 | 46.39572 | 35.44370 | 20996 ft | 425 kts | 144° |
| 2026-04-23 16:17 | 46.37359 | 35.47250 | 20995 ft | 430 kts | 143° |
| 2026-04-23 16:17 | 46.35138 | 35.50143 | 20994 ft | 432 kts | 143° |
| 2026-04-23 16:18 | 46.32898 | 35.53061 | 20993 ft | 434 kts | 143° |
| 2026-04-23 16:18 | 46.30655 | 35.55984 | 20993 ft | 435 kts | 143° |
| 2026-04-23 16:18 | 46.28412 | 35.58908 | 20993 ft | 435 kts | 143° |
| 2026-04-23 16:18 | 46.26156 | 35.61847 | 20993 ft | 435 kts | 143° |
| 2026-04-23 16:19 | 46.23908 | 35.64773 | 20993 ft | 435 kts | 143° |
| 2026-04-23 16:19 | 46.21662 | 35.67692 | 20993 ft | 436 kts | 143° |
| 2026-04-23 16:19 | 46.19410 | 35.70616 | 20994 ft | 436 kts | 144° |
| 2026-04-23 16:19 | 46.17152 | 35.73542 | 20994 ft | 436 kts | 144° |
| 2026-04-23 16:20 | 46.14897 | 35.76459 | 20994 ft | 436 kts | 144° |
| 2026-04-23 16:20 | 46.12636 | 35.79382 | 20994 ft | 436 kts | 144° |
| 2026-04-23 16:20 | 46.10378 | 35.82295 | 20994 ft | 436 kts | 144° |
| 2026-04-23 16:20 | 46.08121 | 35.85205 | 20994 ft | 436 kts | 144° |
| 2026-04-23 16:21 | 46.05856 | 35.88120 | 20994 ft | 436 kts | 144° |
| 2026-04-23 16:21 | 46.03598 | 35.91023 | 20994 ft | 436 kts | 144° |
| 2026-04-23 16:21 | 46.01335 | 35.93929 | 20994 ft | 436 kts | 144° |
| 2026-04-23 16:21 | 45.99067 | 35.96838 | 20995 ft | 436 kts | 144° |
| 2026-04-23 16:22 | 45.96808 | 35.99730 | 20995 ft | 436 kts | 144° |
| 2026-04-23 16:22 | 45.94538 | 36.02634 | 20995 ft | 436 kts | 144° |
| 2026-04-23 16:22 | 45.92273 | 36.05529 | 20995 ft | 436 kts | 144° |
| 2026-04-23 16:22 | 45.90011 | 36.08415 | 20995 ft | 436 kts | 144° |
| 2026-04-23 16:23 | 45.87744 | 36.11305 | 20995 ft | 436 kts | 144° |
| 2026-04-23 16:23 | 45.85472 | 36.14198 | 20995 ft | 436 kts | 144° |
| 2026-04-23 16:23 | 45.83203 | 36.17081 | 20995 ft | 436 kts | 144° |
| 2026-04-23 16:23 | 45.80935 | 36.19962 | 20995 ft | 436 kts | 144° |
| 2026-04-23 16:24 | 45.78663 | 36.22843 | 20995 ft | 436 kts | 144° |
| 2026-04-23 16:24 | 45.76391 | 36.25722 | 20995 ft | 436 kts | 144° |
| 2026-04-23 16:24 | 45.74115 | 36.28602 | 20995 ft | 437 kts | 144° |
| 2026-04-23 16:24 | 45.71840 | 36.31477 | 20990 ft | 437 kts | 144° |
| 2026-04-23 16:25 | 45.69571 | 36.34342 | 20989 ft | 437 kts | 144° |
| 2026-04-23 16:25 | 45.67287 | 36.37222 | 20988 ft | 437 kts | 144° |
| 2026-04-23 16:25 | 45.65011 | 36.40089 | 20989 ft | 437 kts | 144° |
| 2026-04-23 16:25 | 45.62727 | 36.42963 | 20989 ft | 437 kts | 144° |
| 2026-04-23 16:26 | 45.60444 | 36.45832 | 20989 ft | 437 kts | 144° |
| 2026-04-23 16:26 | 45.58164 | 36.48694 | 20990 ft | 438 kts | 144° |
| 2026-04-23 16:26 | 45.55878 | 36.51561 | 20990 ft | 438 kts | 143° |
| 2026-04-23 16:26 | 45.53587 | 36.54430 | 20990 ft | 438 kts | 143° |